sensor_id;sensor_type;location;lat;lon;timestamp;P1;P4;P2;P0;N10;N4;N25;N1;N05;TS
44530;SPS30;30240;47.418;0.700;2023-07-13T00:01:43;1.8875878;;1.8523555;;;;;;;
44530;SPS30;30240;47.418;0.700;2023-07-13T00:04:09;1.809885;;1.7824183;;;;;;;
44530;SPS30;30240;47.418;0.700;2023-07-13T00:06:34;1.7133493;;1.7133493;;;;;;;
44530;SPS30;30240;47.418;0.700;2023-07-13T00:08:59;1.7133493;;1.7133493;;;;;;;
44530;SPS30;30240;47.418;0.700;2023-07-13T00:11:23;2.1096196;;2.1096196;;;;;;;
44530;SPS30;30240;47.418;0.700;2023-07-13T00:13:48;1.7534581;;1.7267176;;;;;;;
44530;SPS30;30240;47.418;0.700;2023-07-13T00:16:13;1.7185285;;1.7162772;;;;;;;
44530;SPS30;30240;47.418;0.700;2023-07-13T00:18:39;1.6795771;;1.6795771;;;;;;;
44530;SPS30;30240;47.418;0.700;2023-07-13T00:21:04;1.6795771;;1.6795771;;;;;;;
44530;SPS30;30240;47.418;0.700;2023-07-13T00:23:28;1.7914848;;1.7914848;;;;;;;
44530;SPS30;30240;47.418;0.700;2023-07-13T00:25:53;1.4914927;;1.4914927;;;;;;;
44530;SPS30;30240;47.418;0.700;2023-07-13T00:28:18;1.8101835;;1.8090461;;;;;;;
44530;SPS30;30240;47.418;0.700;2023-07-13T00:30:43;2.1797805;;2.147082;;;;;;;
44530;SPS30;30240;47.418;0.700;2023-07-13T00:33:08;2.1797805;;2.147082;;;;;;;
44530;SPS30;30240;47.418;0.700;2023-07-13T00:35:33;2.0171704;;1.9862392;;;;;;;
44530;SPS30;30240;47.418;0.700;2023-07-13T00:37:58;1.7349709;;1.709482;;;;;;;
44530;SPS30;30240;47.418;0.700;2023-07-13T00:40:23;2.073704;;2.0505095;;;;;;;
44530;SPS30;30240;47.418;0.700;2023-07-13T00:42:48;2.3625753;;2.3412344;;;;;;;
44530;SPS30;30240;47.418;0.700;2023-07-13T00:47:39;1.6989987;;1.667646;;;;;;;
44530;SPS30;30240;47.418;0.700;2023-07-13T00:50:04;2.1679673;;2.1485746;;;;;;;
44530;SPS30;30240;47.418;0.700;2023-07-13T00:52:28;2.6289132;;2.6116626;;;;;;;
44530;SPS30;30240;47.418;0.700;2023-07-13T00:54:53;1.988627;;1.9830819;;;;;;;
44530;SPS30;30240;47.418;0.700;2023-07-13T00:57:19;2.1191506;;2.101404;;;;;;;
44530;SPS30;30240;47.418;0.700;2023-07-13T00:59:45;2.1191506;;2.101404;;;;;;;
44530;SPS30;30240;47.418;0.700;2023-07-13T01:02:08;2.2118037;;2.1983583;;;;;;;
44530;SPS30;30240;47.418;0.700;2023-07-13T01:04:33;2.0691957;;2.05625;;;;;;;
44530;SPS30;30240;47.418;0.700;2023-07-13T01:06:58;2.1413028;;2.1274405;;;;;;;
44530;SPS30;30240;47.418;0.700;2023-07-13T01:09:25;2.0884035;;2.0666656;;;;;;;
44530;SPS30;30240;47.418;0.700;2023-07-13T01:11:48;2.0884035;;2.0666656;;;;;;;
44530;SPS30;30240;47.418;0.700;2023-07-13T01:14:14;1.9538505;;1.9234998;;;;;;;
44530;SPS30;30240;47.418;0.700;2023-07-13T01:16:39;2.0813878;;2.0507557;;;;;;;
44530;SPS30;30240;47.418;0.700;2023-07-13T01:19:06;2.0888348;;2.062272;;;;;;;
44530;SPS30;30240;47.418;0.700;2023-07-13T01:21:29;1.7471606;;1.7471606;;;;;;;
44530;SPS30;30240;47.418;0.700;2023-07-13T01:23:53;1.7471606;;1.7471606;;;;;;;
44530;SPS30;30240;47.418;0.700;2023-07-13T01:26:18;2.052117;;2.0433567;;;;;;;
44530;SPS30;30240;47.418;0.700;2023-07-13T01:28:43;2.06175;;2.029087;;;;;;;
44530;SPS30;30240;47.418;0.700;2023-07-13T01:31:09;2.1402488;;2.0830233;;;;;;;
44530;SPS30;30240;47.418;0.700;2023-07-13T01:33:33;1.8829132;;1.8450606;;;;;;;
44530;SPS30;30240;47.418;0.700;2023-07-13T01:35:58;1.8829132;;1.8450606;;;;;;;
44530;SPS30;30240;47.418;0.700;2023-07-13T01:38:24;1.9781343;;1.9308167;;;;;;;
44530;SPS30;30240;47.418;0.700;2023-07-13T01:40:49;2.2261786;;2.1736455;;;;;;;
44530;SPS30;30240;47.418;0.700;2023-07-13T01:43:13;2.3690984;;2.3114932;;;;;;;
44530;SPS30;30240;47.418;0.700;2023-07-13T01:45:38;1.9137427;;1.8811054;;;;;;;
44530;SPS30;30240;47.418;0.700;2023-07-13T01:48:04;1.9137427;;1.8811054;;;;;;;
44530;SPS30;30240;47.418;0.700;2023-07-13T01:50:28;2.4895291;;2.4268866;;;;;;;
44530;SPS30;30240;47.418;0.700;2023-07-13T01:52:54;2.589564;;2.5348842;;;;;;;
44530;SPS30;30240;47.418;0.700;2023-07-13T01:55:19;2.5840864;;2.5181699;;;;;;;
44530;SPS30;30240;47.418;0.700;2023-07-13T01:57:43;2.1746995;;2.1261191;;;;;;;
44530;SPS30;30240;47.418;0.700;2023-07-13T02:00:09;2.1746995;;2.1261191;;;;;;;
44530;SPS30;30240;47.418;0.700;2023-07-13T02:02:33;1.965143;;1.9075716;;;;;;;
44530;SPS30;30240;47.418;0.700;2023-07-13T02:04:58;1.9666431;;1.9291615;;;;;;;
44530;SPS30;30240;47.418;0.700;2023-07-13T02:07:23;2.494752;;2.4564385;;;;;;;
44530;SPS30;30240;47.418;0.700;2023-07-13T02:09:48;2.006988;;1.97704;;;;;;;
44530;SPS30;30240;47.418;0.700;2023-07-13T02:12:13;2.740414;;2.6964214;;;;;;;
44530;SPS30;30240;47.418;0.700;2023-07-13T02:14:38;2.740414;;2.6964214;;;;;;;
44530;SPS30;30240;47.418;0.700;2023-07-13T02:17:04;2.832339;;2.8019645;;;;;;;
44530;SPS30;30240;47.418;0.700;2023-07-13T02:19:28;2.8971252;;2.8615305;;;;;;;
44530;SPS30;30240;47.418;0.700;2023-07-13T02:21:53;2.170485;;2.118966;;;;;;;
44530;SPS30;30240;47.418;0.700;2023-07-13T02:24:18;2.4853215;;2.4497561;;;;;;;
44530;SPS30;30240;47.418;0.700;2023-07-13T02:26:43;2.4853215;;2.4497561;;;;;;;
44530;SPS30;30240;47.418;0.700;2023-07-13T02:29:08;2.5375721;;2.5059168;;;;;;;
44530;SPS30;30240;47.418;0.700;2023-07-13T02:31:33;2.0523942;;2.0427146;;;;;;;
44530;SPS30;30240;47.418;0.700;2023-07-13T02:33:58;1.9984381;;1.9874109;;;;;;;
44530;SPS30;30240;47.418;0.700;2023-07-13T02:36:23;2.0694256;;2.0419912;;;;;;;
44530;SPS30;30240;47.418;0.700;2023-07-13T02:38:49;2.0694256;;2.0419912;;;;;;;
44530;SPS30;30240;47.418;0.700;2023-07-13T02:41:13;3.1199818;;3.0757716;;;;;;;
44530;SPS30;30240;47.418;0.700;2023-07-13T02:43:39;1.9630461;;1.9481189;;;;;;;
44530;SPS30;30240;47.418;0.700;2023-07-13T02:46:03;2.119437;;2.0927203;;;;;;;
44530;SPS30;30240;47.418;0.700;2023-07-13T02:48:28;2.2451131;;2.2240996;;;;;;;
44530;SPS30;30240;47.418;0.700;2023-07-13T02:50:53;2.2451131;;2.2240996;;;;;;;
44530;SPS30;30240;47.418;0.700;2023-07-13T02:53:18;2.146001;;2.1414745;;;;;;;
44530;SPS30;30240;47.418;0.700;2023-07-13T02:55:43;2.1371992;;2.1237705;;;;;;;
44530;SPS30;30240;47.418;0.700;2023-07-13T02:58:08;1.7164688;;1.7036201;;;;;;;
44530;SPS30;30240;47.418;0.700;2023-07-13T03:00:33;2.5615656;;2.538211;;;;;;;
44530;SPS30;30240;47.418;0.700;2023-07-13T03:02:59;2.5615656;;2.538211;;;;;;;
44530;SPS30;30240;47.418;0.700;2023-07-13T03:05:24;1.992368;;1.9669366;;;;;;;
44530;SPS30;30240;47.418;0.700;2023-07-13T03:07:48;2.262846;;2.229142;;;;;;;
44530;SPS30;30240;47.418;0.700;2023-07-13T03:10:13;1.7896793;;1.769771;;;;;;;
44530;SPS30;30240;47.418;0.700;2023-07-13T03:12:38;2.6546001;;2.6546001;;;;;;;
44530;SPS30;30240;47.418;0.700;2023-07-13T03:15:04;2.6546001;;2.6546001;;;;;;;
44530;SPS30;30240;47.418;0.700;2023-07-13T03:17:28;1.6872003;;1.6872003;;;;;;;
44530;SPS30;30240;47.418;0.700;2023-07-13T03:19:53;2.3191366;;2.3188107;;;;;;;
44530;SPS30;30240;47.418;0.700;2023-07-13T03:22:18;1.8539925;;1.8516074;;;;;;;
44530;SPS30;30240;47.418;0.700;2023-07-13T03:24:44;2.4209242;;2.4209242;;;;;;;
44530;SPS30;30240;47.418;0.700;2023-07-13T03:27:08;2.4209242;;2.4209242;;;;;;;
44530;SPS30;30240;47.418;0.700;2023-07-13T03:29:33;1.8609546;;1.8609546;;;;;;;
44530;SPS30;30240;47.418;0.700;2023-07-13T03:31:58;1.801392;;1.801392;;;;;;;
44530;SPS30;30240;47.418;0.700;2023-07-13T03:34:23;2.287674;;2.287674;;;;;;;
44530;SPS30;30240;47.418;0.700;2023-07-13T03:36:48;1.9577928;;1.9577928;;;;;;;
44530;SPS30;30240;47.418;0.700;2023-07-13T03:39:13;1.9577928;;1.9577928;;;;;;;
44530;SPS30;30240;47.418;0.700;2023-07-13T03:41:38;2.028855;;2.028855;;;;;;;
44530;SPS30;30240;47.418;0.700;2023-07-13T03:44:03;1.7439717;;1.7439717;;;;;;;
44530;SPS30;30240;47.418;0.700;2023-07-13T03:46:29;2.1151576;;2.1117284;;;;;;;
44530;SPS30;30240;47.418;0.700;2023-07-13T03:48:53;2.0765355;;2.05554;;;;;;;
44530;SPS30;30240;47.418;0.700;2023-07-13T03:51:19;1.6913496;;1.6913496;;;;;;;
44530;SPS30;30240;47.418;0.700;2023-07-13T03:53:44;1.6913496;;1.6913496;;;;;;;
44530;SPS30;30240;47.418;0.700;2023-07-13T03:56:08;2.3885024;;2.3870573;;;;;;;
44530;SPS30;30240;47.418;0.700;2023-07-13T03:58:34;2.0918438;;2.0918438;;;;;;;
44530;SPS30;30240;47.418;0.700;2023-07-13T04:00:59;2.0472844;;2.047277;;;;;;;
44530;SPS30;30240;47.418;0.700;2023-07-13T04:03:24;2.3872323;;2.3872323;;;;;;;
44530;SPS30;30240;47.418;0.700;2023-07-13T04:05:48;2.3872323;;2.3872323;;;;;;;
44530;SPS30;30240;47.418;0.700;2023-07-13T04:08:13;2.395238;;2.3952315;;;;;;;
44530;SPS30;30240;47.418;0.700;2023-07-13T04:10:38;2.1129458;;2.1129458;;;;;;;
44530;SPS30;30240;47.418;0.700;2023-07-13T04:13:03;2.2630115;;2.2630115;;;;;;;
44530;SPS30;30240;47.418;0.700;2023-07-13T04:15:29;1.9967828;;1.9967828;;;;;;;
44530;SPS30;30240;47.418;0.700;2023-07-13T04:17:53;1.9967828;;1.9967828;;;;;;;
44530;SPS30;30240;47.418;0.700;2023-07-13T04:20:18;2.7306242;;2.7306242;;;;;;;
44530;SPS30;30240;47.418;0.700;2023-07-13T04:22:43;2.2452452;;2.2340465;;;;;;;
44530;SPS30;30240;47.418;0.700;2023-07-13T04:25:08;2.3177545;;2.3177545;;;;;;;
44530;SPS30;30240;47.418;0.700;2023-07-13T04:27:33;2.331242;;2.331242;;;;;;;
44530;SPS30;30240;47.418;0.700;2023-07-13T04:29:59;2.331242;;2.331242;;;;;;;
44530;SPS30;30240;47.418;0.700;2023-07-13T04:32:24;2.036283;;2.036283;;;;;;;
44530;SPS30;30240;47.418;0.700;2023-07-13T04:34:49;2.687565;;2.687565;;;;;;;
44530;SPS30;30240;47.418;0.700;2023-07-13T04:37:14;2.1875584;;2.1875584;;;;;;;
44530;SPS30;30240;47.418;0.700;2023-07-13T04:39:39;2.332353;;2.332353;;;;;;;
44530;SPS30;30240;47.418;0.700;2023-07-13T04:42:04;2.332353;;2.332353;;;;;;;
44530;SPS30;30240;47.418;0.700;2023-07-13T04:44:29;2.302719;;2.302719;;;;;;;
44530;SPS30;30240;47.418;0.700;2023-07-13T04:46:54;2.1506867;;2.1506867;;;;;;;
44530;SPS30;30240;47.418;0.700;2023-07-13T04:49:18;2.4719043;;2.4508367;;;;;;;
44530;SPS30;30240;47.418;0.700;2023-07-13T04:51:44;2.5152316;;2.5152307;;;;;;;
44530;SPS30;30240;47.418;0.700;2023-07-13T04:54:09;2.5152316;;2.5152307;;;;;;;
44530;SPS30;30240;47.418;0.700;2023-07-13T04:56:34;2.36556;;2.36556;;;;;;;
44530;SPS30;30240;47.418;0.700;2023-07-13T04:58:58;2.343469;;2.3151271;;;;;;;
44530;SPS30;30240;47.418;0.700;2023-07-13T05:01:24;2.8551273;;2.8259175;;;;;;;
44530;SPS30;30240;47.418;0.700;2023-07-13T05:03:48;2.2296236;;2.1786282;;;;;;;
44530;SPS30;30240;47.418;0.700;2023-07-13T05:06:13;2.2296236;;2.1786282;;;;;;;
44530;SPS30;30240;47.418;0.700;2023-07-13T05:08:38;2.1548936;;2.121949;;;;;;;
44530;SPS30;30240;47.418;0.700;2023-07-13T05:11:04;1.9699191;;1.9445032;;;;;;;
44530;SPS30;30240;47.418;0.700;2023-07-13T05:13:28;2.2787004;;2.2590427;;;;;;;
44530;SPS30;30240;47.418;0.700;2023-07-13T05:15:56;2.1946924;;2.1733277;;;;;;;
44530;SPS30;30240;47.418;0.700;2023-07-13T05:18:19;2.0810297;;2.0641284;;;;;;;
44530;SPS30;30240;47.418;0.700;2023-07-13T05:20:43;2.0810297;;2.0641284;;;;;;;
44530;SPS30;30240;47.418;0.700;2023-07-13T05:23:08;2.2138827;;2.1972706;;;;;;;
44530;SPS30;30240;47.418;0.700;2023-07-13T05:25:33;2.2164714;;2.199529;;;;;;;
44530;SPS30;30240;47.418;0.700;2023-07-13T05:27:58;2.1829817;;2.16862;;;;;;;
44530;SPS30;30240;47.418;0.700;2023-07-13T05:30:23;2.205604;;2.1693852;;;;;;;
44530;SPS30;30240;47.418;0.700;2023-07-13T05:32:48;2.205604;;2.1693852;;;;;;;
44530;SPS30;30240;47.418;0.700;2023-07-13T05:35:14;2.2581728;;2.2466044;;;;;;;
44530;SPS30;30240;47.418;0.700;2023-07-13T05:37:38;2.6249576;;2.6249576;;;;;;;
44530;SPS30;30240;47.418;0.700;2023-07-13T05:40:04;2.6322541;;2.621757;;;;;;;
44530;SPS30;30240;47.418;0.700;2023-07-13T05:42:28;2.3168192;;2.3168192;;;;;;;
44530;SPS30;30240;47.418;0.700;2023-07-13T05:44:53;2.3168192;;2.3168192;;;;;;;
44530;SPS30;30240;47.418;0.700;2023-07-13T05:47:18;2.3798428;;2.368025;;;;;;;
44530;SPS30;30240;47.418;0.700;2023-07-13T05:49:43;2.594561;;2.5785563;;;;;;;
44530;SPS30;30240;47.418;0.700;2023-07-13T05:52:08;2.278375;;2.2634845;;;;;;;
44530;SPS30;30240;47.418;0.700;2023-07-13T05:54:33;2.7074585;;2.6979682;;;;;;;
44530;SPS30;30240;47.418;0.700;2023-07-13T05:56:59;2.7074585;;2.6979682;;;;;;;
44530;SPS30;30240;47.418;0.700;2023-07-13T05:59:23;2.5006807;;2.498045;;;;;;;
44530;SPS30;30240;47.418;0.700;2023-07-13T06:01:49;2.6827626;;2.6827612;;;;;;;
44530;SPS30;30240;47.418;0.700;2023-07-13T06:04:13;1.9712088;;1.9712088;;;;;;;
44530;SPS30;30240;47.418;0.700;2023-07-13T06:06:38;2.4077883;;2.3853815;;;;;;;
44530;SPS30;30240;47.418;0.700;2023-07-13T06:09:03;2.4077883;;2.3853815;;;;;;;
44530;SPS30;30240;47.418;0.700;2023-07-13T06:11:28;2.2361507;;2.215446;;;;;;;
44530;SPS30;30240;47.418;0.700;2023-07-13T06:13:53;2.6540396;;2.605216;;;;;;;
44530;SPS30;30240;47.418;0.700;2023-07-13T06:16:19;2.085963;;2.0857878;;;;;;;
44530;SPS30;30240;47.418;0.700;2023-07-13T06:18:44;2.722413;;2.722413;;;;;;;
44530;SPS30;30240;47.418;0.700;2023-07-13T06:21:09;2.722413;;2.722413;;;;;;;
44530;SPS30;30240;47.418;0.700;2023-07-13T06:23:33;2.2159576;;2.2159576;;;;;;;
44530;SPS30;30240;47.418;0.700;2023-07-13T06:25:59;2.9259758;;2.9259353;;;;;;;
44530;SPS30;30240;47.418;0.700;2023-07-13T06:28:23;2.1985862;;2.1985862;;;;;;;
44530;SPS30;30240;47.418;0.700;2023-07-13T06:30:48;2.59856;;2.5913308;;;;;;;
44530;SPS30;30240;47.418;0.700;2023-07-13T06:33:13;2.59856;;2.5913308;;;;;;;
44530;SPS30;30240;47.418;0.700;2023-07-13T06:35:38;2.876638;;2.8765852;;;;;;;
44530;SPS30;30240;47.418;0.700;2023-07-13T06:38:03;2.7150571;;2.7150571;;;;;;;
44530;SPS30;30240;47.418;0.700;2023-07-13T06:40:28;2.7109137;;2.7102883;;;;;;;
44530;SPS30;30240;47.418;0.700;2023-07-13T06:42:53;2.3265443;;2.3172472;;;;;;;
44530;SPS30;30240;47.418;0.700;2023-07-13T06:45:18;2.3265443;;2.3172472;;;;;;;
44530;SPS30;30240;47.418;0.700;2023-07-13T06:47:43;2.492237;;2.4762166;;;;;;;
44530;SPS30;30240;47.418;0.700;2023-07-13T06:50:09;2.2682676;;2.2593188;;;;;;;
44530;SPS30;30240;47.418;0.700;2023-07-13T06:52:33;2.4625726;;2.4603593;;;;;;;
44530;SPS30;30240;47.418;0.700;2023-07-13T06:54:58;2.1536944;;2.137851;;;;;;;
44530;SPS30;30240;47.418;0.700;2023-07-13T06:57:23;2.440208;;2.440208;;;;;;;
44530;SPS30;30240;47.418;0.700;2023-07-13T06:59:49;2.440208;;2.440208;;;;;;;
44530;SPS30;30240;47.418;0.700;2023-07-13T07:02:13;2.0108767;;2.0108767;;;;;;;
44530;SPS30;30240;47.418;0.700;2023-07-13T07:04:38;2.8274994;;2.827169;;;;;;;
44530;SPS30;30240;47.418;0.700;2023-07-13T07:07:04;2.7947147;;2.7947147;;;;;;;
44530;SPS30;30240;47.418;0.700;2023-07-13T07:09:28;2.3504412;;2.3504412;;;;;;;
44530;SPS30;30240;47.418;0.700;2023-07-13T07:11:53;2.3504412;;2.3504412;;;;;;;
44530;SPS30;30240;47.418;0.700;2023-07-13T07:14:18;2.3644512;;2.3507116;;;;;;;
44530;SPS30;30240;47.418;0.700;2023-07-13T07:16:43;2.6170259;;2.616979;;;;;;;
44530;SPS30;30240;47.418;0.700;2023-07-13T07:19:08;2.2593122;;2.2593122;;;;;;;
44530;SPS30;30240;47.418;0.700;2023-07-13T07:21:33;2.1653512;;2.1653512;;;;;;;
44530;SPS30;30240;47.418;0.700;2023-07-13T07:23:58;2.1653512;;2.1653512;;;;;;;
44530;SPS30;30240;47.418;0.700;2023-07-13T07:26:23;2.381075;;2.381075;;;;;;;
44530;SPS30;30240;47.418;0.700;2023-07-13T07:28:48;2.5687172;;2.5486693;;;;;;;
44530;SPS30;30240;47.418;0.700;2023-07-13T07:31:13;2.6167185;;2.6005826;;;;;;;
44530;SPS30;30240;47.418;0.700;2023-07-13T07:33:38;2.1173642;;2.1173642;;;;;;;
44530;SPS30;30240;47.418;0.700;2023-07-13T07:36:04;2.1173642;;2.1173642;;;;;;;
44530;SPS30;30240;47.418;0.700;2023-07-13T07:38:28;2.6352727;;2.6352727;;;;;;;
44530;SPS30;30240;47.418;0.700;2023-07-13T07:40:53;2.5540857;;2.534534;;;;;;;
44530;SPS30;30240;47.418;0.700;2023-07-13T07:43:18;1.769002;;1.7524078;;;;;;;
44530;SPS30;30240;47.418;0.700;2023-07-13T07:45:44;2.1492953;;2.1097372;;;;;;;
44530;SPS30;30240;47.418;0.700;2023-07-13T07:48:08;2.1492953;;2.1097372;;;;;;;
44530;SPS30;30240;47.418;0.700;2023-07-13T07:50:33;1.8507928;;1.8228785;;;;;;;
44530;SPS30;30240;47.418;0.700;2023-07-13T07:52:58;2.3082182;;2.3082182;;;;;;;
44530;SPS30;30240;47.418;0.700;2023-07-13T07:55:24;2.3831773;;2.3523562;;;;;;;
44530;SPS30;30240;47.418;0.700;2023-07-13T07:57:49;2.0757303;;2.0520341;;;;;;;
44530;SPS30;30240;47.418;0.700;2023-07-13T08:00:14;2.0757303;;2.0520341;;;;;;;
44530;SPS30;30240;47.418;0.700;2023-07-13T08:02:38;2.4461389;;2.4184792;;;;;;;
44530;SPS30;30240;47.418;0.700;2023-07-13T08:05:04;1.9251688;;1.8917841;;;;;;;
44530;SPS30;30240;47.418;0.700;2023-07-13T08:07:29;2.1798213;;2.162062;;;;;;;
44530;SPS30;30240;47.418;0.700;2023-07-13T08:09:53;2.3643775;;2.3460944;;;;;;;
44530;SPS30;30240;47.418;0.700;2023-07-13T08:12:18;2.3643775;;2.3460944;;;;;;;
44530;SPS30;30240;47.418;0.700;2023-07-13T08:14:43;2.35216;;2.345007;;;;;;;
44530;SPS30;30240;47.418;0.700;2023-07-13T08:17:08;1.9983302;;1.9833455;;;;;;;
44530;SPS30;30240;47.418;0.700;2023-07-13T08:19:33;2.0002148;;1.97849;;;;;;;
44530;SPS30;30240;47.418;0.700;2023-07-13T08:21:58;1.8129042;;1.7896411;;;;;;;
44530;SPS30;30240;47.418;0.700;2023-07-13T08:24:24;1.7029179;;1.6706623;;;;;;;
44530;SPS30;30240;47.418;0.700;2023-07-13T08:26:48;1.7029179;;1.6706623;;;;;;;
44530;SPS30;30240;47.418;0.700;2023-07-13T08:29:13;2.221352;;2.1766188;;;;;;;
44530;SPS30;30240;47.418;0.700;2023-07-13T08:31:38;2.127925;;2.0896885;;;;;;;
44530;SPS30;30240;47.418;0.700;2023-07-13T08:34:04;1.7616396;;1.7307814;;;;;;;
44530;SPS30;30240;47.418;0.700;2023-07-13T08:36:28;1.722647;;1.7007148;;;;;;;
44530;SPS30;30240;47.418;0.700;2023-07-13T08:38:53;1.722647;;1.7007148;;;;;;;
44530;SPS30;30240;47.418;0.700;2023-07-13T08:41:18;1.7375643;;1.7075772;;;;;;;
44530;SPS30;30240;47.418;0.700;2023-07-13T08:43:45;2.4147937;;2.414257;;;;;;;
44530;SPS30;30240;47.418;0.700;2023-07-13T08:46:09;1.9303929;;1.9303929;;;;;;;
44530;SPS30;30240;47.418;0.700;2023-07-13T08:48:34;1.7854712;;1.7542695;;;;;;;
44530;SPS30;30240;47.418;0.700;2023-07-13T08:51:00;1.7854712;;1.7542695;;;;;;;
44530;SPS30;30240;47.418;0.700;2023-07-13T08:53:24;1.7382258;;1.7382258;;;;;;;
44530;SPS30;30240;47.418;0.700;2023-07-13T08:55:48;1.7852185;;1.7852185;;;;;;;
44530;SPS30;30240;47.418;0.700;2023-07-13T08:58:14;2.1110215;;2.1110215;;;;;;;
44530;SPS30;30240;47.418;0.700;2023-07-13T09:00:41;1.6705409;;1.6705409;;;;;;;
44530;SPS30;30240;47.418;0.700;2023-07-13T09:03:04;1.6705409;;1.6705409;;;;;;;
44530;SPS30;30240;47.418;0.700;2023-07-13T09:05:30;2.018534;;2.018534;;;;;;;
44530;SPS30;30240;47.418;0.700;2023-07-13T09:08:00;1.9085816;;1.9037385;;;;;;;
44530;SPS30;30240;47.418;0.700;2023-07-13T09:10:19;2.3674352;;2.3674352;;;;;;;
44530;SPS30;30240;47.418;0.700;2023-07-13T09:12:45;1.7377857;;1.7299998;;;;;;;
44530;SPS30;30240;47.418;0.700;2023-07-13T09:15:17;1.7377857;;1.7299998;;;;;;;
44530;SPS30;30240;47.418;0.700;2023-07-13T09:15:21;1.7377857;;1.7299998;;;;;;;
44530;SPS30;30240;47.418;0.700;2023-07-13T09:17:35;1.7846881;;1.7846881;;;;;;;
44530;SPS30;30240;47.418;0.700;2023-07-13T09:19:59;1.935213;;1.935213;;;;;;;
44530;SPS30;30240;47.418;0.700;2023-07-13T09:22:24;1.5032973;;1.5032973;;;;;;;
44530;SPS30;30240;47.418;0.700;2023-07-13T09:24:50;1.7472842;;1.743233;;;;;;;
44530;SPS30;30240;47.418;0.700;2023-07-13T09:27:15;1.7472842;;1.743233;;;;;;;
44530;SPS30;30240;47.418;0.700;2023-07-13T09:29:38;1.649747;;1.649747;;;;;;;
44530;SPS30;30240;47.418;0.700;2023-07-13T09:32:04;1.5825152;;1.5752411;;;;;;;
44530;SPS30;30240;47.418;0.700;2023-07-13T09:34:28;1.4976343;;1.4757099;;;;;;;
44530;SPS30;30240;47.418;0.700;2023-07-13T09:36:54;1.5989122;;1.5686026;;;;;;;
44530;SPS30;30240;47.418;0.700;2023-07-13T09:39:20;1.5989122;;1.5686026;;;;;;;
44530;SPS30;30240;47.418;0.700;2023-07-13T09:39:25;1.5989122;;1.5686026;;;;;;;
44530;SPS30;30240;47.418;0.700;2023-07-13T09:41:45;1.7344224;;1.6952057;;;;;;;
44530;SPS30;30240;47.418;0.700;2023-07-13T09:44:09;1.5573926;;1.5204176;;;;;;;
44530;SPS30;30240;47.418;0.700;2023-07-13T09:46:33;1.8482401;;1.8099914;;;;;;;
44530;SPS30;30240;47.418;0.700;2023-07-13T09:48:59;1.6507646;;1.6150929;;;;;;;
44530;SPS30;30240;47.418;0.700;2023-07-13T09:51:23;1.6507646;;1.6150929;;;;;;;
44530;SPS30;30240;47.418;0.700;2023-07-13T09:53:48;2.05548;;2.0032341;;;;;;;
44530;SPS30;30240;47.418;0.700;2023-07-13T09:56:19;1.5350119;;1.4883538;;;;;;;
44530;SPS30;30240;47.418;0.700;2023-07-13T09:58:38;1.5959129;;1.5917081;;;;;;;
44530;SPS30;30240;47.418;0.700;2023-07-13T10:01:04;1.8891631;;1.8891631;;;;;;;
44530;SPS30;30240;47.418;0.700;2023-07-13T10:03:29;1.3443879;;1.3443879;;;;;;;
44530;SPS30;30240;47.418;0.700;2023-07-13T10:05:54;1.3443879;;1.3443879;;;;;;;
44530;SPS30;30240;47.418;0.700;2023-07-13T10:08:20;1.1330377;;1.1330377;;;;;;;
44530;SPS30;30240;47.418;0.700;2023-07-13T10:10:44;1.3772273;;1.3772273;;;;;;;
44530;SPS30;30240;47.418;0.700;2023-07-13T10:13:24;1.3900514;;1.3831198;;;;;;;
44530;SPS30;30240;47.418;0.700;2023-07-13T10:15:34;1.2892138;;1.286241;;;;;;;
44530;SPS30;30240;47.418;0.700;2023-07-13T10:17:59;1.2892138;;1.286241;;;;;;;
44530;SPS30;30240;47.418;0.700;2023-07-13T10:20:24;1.2547113;;1.2439146;;;;;;;
44530;SPS30;30240;47.418;0.700;2023-07-13T10:22:50;1.5461315;;1.5264926;;;;;;;
44530;SPS30;30240;47.418;0.700;2023-07-13T10:25:15;1.2226782;;1.2047666;;;;;;;
44530;SPS30;30240;47.418;0.700;2023-07-13T10:27:38;1.0997791;;1.0908357;;;;;;;
44530;SPS30;30240;47.418;0.700;2023-07-13T10:30:06;1.0997791;;1.0908357;;;;;;;
44530;SPS30;30240;47.418;0.700;2023-07-13T10:30:11;1.0997791;;1.0908357;;;;;;;
44530;SPS30;30240;47.418;0.700;2023-07-13T10:32:28;1.4354128;;1.4354128;;;;;;;
44530;SPS30;30240;47.418;0.700;2023-07-13T10:34:53;1.3770812;;1.3770812;;;;;;;
44530;SPS30;30240;47.418;0.700;2023-07-13T10:37:19;1.383787;;1.3647683;;;;;;;
44530;SPS30;30240;47.418;0.700;2023-07-13T10:39:43;1.3759565;;1.3534358;;;;;;;
44530;SPS30;30240;47.418;0.700;2023-07-13T10:42:09;1.3759565;;1.3534358;;;;;;;
44530;SPS30;30240;47.418;0.700;2023-07-13T10:44:33;1.2323805;;1.2199998;;;;;;;
44530;SPS30;30240;47.418;0.700;2023-07-13T10:46:59;1.3880363;;1.3709449;;;;;;;
44530;SPS30;30240;47.418;0.700;2023-07-13T10:49:23;1.5717789;;1.5409198;;;;;;;
44530;SPS30;30240;47.418;0.700;2023-07-13T10:51:48;1.2329344;;1.2157339;;;;;;;
44530;SPS30;30240;47.418;0.700;2023-07-13T10:54:15;1.2329344;;1.2157339;;;;;;;
44530;SPS30;30240;47.418;0.700;2023-07-13T10:56:38;0.9853633;;0.97811943;;;;;;;
44530;SPS30;30240;47.418;0.700;2023-07-13T10:59:09;1.1441629;;1.1357824;;;;;;;
44530;SPS30;30240;47.418;0.700;2023-07-13T11:01:39;1.2189009;;1.2189006;;;;;;;
44530;SPS30;30240;47.418;0.700;2023-07-13T11:03:55;1.3242478;;1.3242478;;;;;;;
44530;SPS30;30240;47.418;0.700;2023-07-13T11:06:36;1.3242478;;1.3242478;;;;;;;
44530;SPS30;30240;47.418;0.700;2023-07-13T11:08:51;1.0299394;;1.0299394;;;;;;;
44530;SPS30;30240;47.418;0.700;2023-07-13T11:11:36;0.8051685;;0.8051685;;;;;;;
44530;SPS30;30240;47.418;0.700;2023-07-13T11:13:37;1.1547742;;1.1547742;;;;;;;
44530;SPS30;30240;47.418;0.700;2023-07-13T11:15:58;1.7350374;;1.7350374;;;;;;;
44530;SPS30;30240;47.418;0.700;2023-07-13T11:18:24;1.7350374;;1.7350374;;;;;;;
44530;SPS30;30240;47.418;0.700;2023-07-13T11:20:49;1.0428315;;1.0333384;;;;;;;
44530;SPS30;30240;47.418;0.700;2023-07-13T11:23:20;0.9420469;;0.93589526;;;;;;;
44530;SPS30;30240;47.418;0.700;2023-07-13T11:23:28;0.9420469;;0.93589526;;;;;;;
44530;SPS30;30240;47.418;0.700;2023-07-13T11:25:38;1.0861158;;1.0841308;;;;;;;
44530;SPS30;30240;47.418;0.700;2023-07-13T11:28:05;0.9624999;;0.94976306;;;;;;;
44530;SPS30;30240;47.418;0.700;2023-07-13T11:30:35;1.0572662;;1.043907;;;;;;;
44530;SPS30;30240;47.418;0.700;2023-07-13T11:33:02;1.0572662;;1.043907;;;;;;;
44530;SPS30;30240;47.418;0.700;2023-07-13T11:35:21;1.1378864;;1.1250765;;;;;;;
44530;SPS30;30240;47.418;0.700;2023-07-13T11:37:44;1.0722911;;1.0656022;;;;;;;
44530;SPS30;30240;47.418;0.700;2023-07-13T11:40:12;1.4064609;;1.3987745;;;;;;;
44530;SPS30;30240;47.418;0.700;2023-07-13T11:42:34;1.0789114;;1.0718457;;;;;;;
44530;SPS30;30240;47.418;0.700;2023-07-13T11:44:58;1.0789114;;1.0718457;;;;;;;
44530;SPS30;30240;47.418;0.700;2023-07-13T11:47:23;0.93731076;;0.93731076;;;;;;;
44530;SPS30;30240;47.418;0.700;2023-07-13T11:49:49;1.190841;;1.190841;;;;;;;
44530;SPS30;30240;47.418;0.700;2023-07-13T11:52:14;1.0858101;;1.0858101;;;;;;;
44530;SPS30;30240;47.418;0.700;2023-07-13T11:54:43;0.6832118;;0.67688215;;;;;;;
44530;SPS30;30240;47.418;0.700;2023-07-13T11:57:06;0.6832118;;0.67688215;;;;;;;
44530;SPS30;30240;47.418;0.700;2023-07-13T11:57:15;0.6832118;;0.67688215;;;;;;;
44530;SPS30;30240;47.418;0.700;2023-07-13T11:57:19;0.6832118;;0.67688215;;;;;;;
44530;SPS30;30240;47.418;0.700;2023-07-13T11:57:23;0.6832118;;0.67688215;;;;;;;
44530;SPS30;30240;47.418;0.700;2023-07-13T11:59:29;1.0350137;;1.0221652;;;;;;;